sensor_id;sensor_type;location;lat;lon;timestamp;temperature;humidity
52543;DHT22;38449;52.696;6.186;2023-02-01T00:01:56;6.20;99.90
52543;DHT22;38449;52.696;6.186;2023-02-01T00:04:22;6.20;99.90
52543;DHT22;38449;52.696;6.186;2023-02-01T00:06:47;6.30;99.90
52543;DHT22;38449;52.696;6.186;2023-02-01T00:09:13;6.30;99.90
52543;DHT22;38449;52.696;6.186;2023-02-01T00:11:39;6.30;99.90
52543;DHT22;38449;52.696;6.186;2023-02-01T00:14:05;6.40;99.90
52543;DHT22;38449;52.696;6.186;2023-02-01T00:16:32;6.40;99.90
52543;DHT22;38449;52.696;6.186;2023-02-01T00:19:10;6.40;99.90
52543;DHT22;38449;52.696;6.186;2023-02-01T00:21:37;6.30;99.90
52543;DHT22;38449;52.696;6.186;2023-02-01T00:24:03;6.30;99.90
52543;DHT22;38449;52.696;6.186;2023-02-01T00:26:32;6.30;99.90
52543;DHT22;38449;52.696;6.186;2023-02-01T00:28:59;6.40;99.90
52543;DHT22;38449;52.696;6.186;2023-02-01T00:31:25;6.40;99.90
52543;DHT22;38449;52.696;6.186;2023-02-01T00:33:50;6.40;99.90
52543;DHT22;38449;52.696;6.186;2023-02-01T00:36:16;6.40;99.90
52543;DHT22;38449;52.696;6.186;2023-02-01T00:38:42;6.30;99.90
52543;DHT22;38449;52.696;6.186;2023-02-01T00:41:16;6.30;99.90
52543;DHT22;38449;52.696;6.186;2023-02-01T00:43:42;6.30;99.90
52543;DHT22;38449;52.696;6.186;2023-02-01T00:46:08;6.30;99.90
52543;DHT22;38449;52.696;6.186;2023-02-01T00:48:34;6.30;99.90
52543;DHT22;38449;52.696;6.186;2023-02-01T00:51:11;6.40;99.90
52543;DHT22;38449;52.696;6.186;2023-02-01T00:53:37;6.30;99.90
52543;DHT22;38449;52.696;6.186;2023-02-01T00:56:03;6.40;99.90
52543;DHT22;38449;52.696;6.186;2023-02-01T00:58:30;6.40;99.90
52543;DHT22;38449;52.696;6.186;2023-02-01T01:03:30;6.50;99.90
52543;DHT22;38449;52.696;6.186;2023-02-01T01:05:59;6.40;99.90
52543;DHT22;38449;52.696;6.186;2023-02-01T01:08:25;6.40;99.90
52543;DHT22;38449;52.696;6.186;2023-02-01T01:10:51;6.50;99.90
52543;DHT22;38449;52.696;6.186;2023-02-01T01:13:17;6.50;99.90
52543;DHT22;38449;52.696;6.186;2023-02-01T01:15:42;6.50;99.90
52543;DHT22;38449;52.696;6.186;2023-02-01T01:18:08;6.60;99.90
52543;DHT22;38449;52.696;6.186;2023-02-01T01:20:35;6.60;99.90
52543;DHT22;38449;52.696;6.186;2023-02-01T01:23:02;6.60;99.90
52543;DHT22;38449;52.696;6.186;2023-02-01T01:25:28;6.60;99.90
52543;DHT22;38449;52.696;6.186;2023-02-01T01:27:54;6.60;99.90
52543;DHT22;38449;52.696;6.186;2023-02-01T01:30:19;6.60;99.90
52543;DHT22;38449;52.696;6.186;2023-02-01T01:32:45;6.50;99.90
52543;DHT22;38449;52.696;6.186;2023-02-01T01:35:11;6.60;99.90
52543;DHT22;38449;52.696;6.186;2023-02-01T01:37:37;6.60;99.90
52543;DHT22;38449;52.696;6.186;2023-02-01T01:40:04;6.50;99.90
52543;DHT22;38449;52.696;6.186;2023-02-01T01:42:29;6.50;99.90
52543;DHT22;38449;52.696;6.186;2023-02-01T01:47:49;6.50;99.90
52543;DHT22;38449;52.696;6.186;2023-02-01T01:50:19;6.40;99.90
52543;DHT22;38449;52.696;6.186;2023-02-01T01:52:48;6.50;99.90
52543;DHT22;38449;52.696;6.186;2023-02-01T01:55:17;6.40;99.90
52543;DHT22;38449;52.696;6.186;2023-02-01T01:57:47;6.50;99.90
52543;DHT22;38449;52.696;6.186;2023-02-01T02:00:17;6.50;99.90
52543;DHT22;38449;52.696;6.186;2023-02-01T02:02:47;6.50;99.90
52543;DHT22;38449;52.696;6.186;2023-02-01T02:05:15;6.50;99.90
52543;DHT22;38449;52.696;6.186;2023-02-01T02:07:45;6.60;99.90
52543;DHT22;38449;52.696;6.186;2023-02-01T02:10:12;6.50;99.90
52543;DHT22;38449;52.696;6.186;2023-02-01T02:12:41;6.50;99.90
52543;DHT22;38449;52.696;6.186;2023-02-01T02:15:12;6.50;99.90
52543;DHT22;38449;52.696;6.186;2023-02-01T02:17:54;6.50;99.90
52543;DHT22;38449;52.696;6.186;2023-02-01T02:23:33;6.50;99.90
52543;DHT22;38449;52.696;6.186;2023-02-01T02:26:23;6.40;99.90
52543;DHT22;38449;52.696;6.186;2023-02-01T02:29:17;6.40;99.90
52543;DHT22;38449;52.696;6.186;2023-02-01T02:32:04;6.40;99.90
52543;DHT22;38449;52.696;6.186;2023-02-01T02:34:51;6.40;99.90
52543;DHT22;38449;52.696;6.186;2023-02-01T02:43:18;6.40;99.90
52543;DHT22;38449;52.696;6.186;2023-02-01T02:46:35;6.40;99.90
52543;DHT22;38449;52.696;6.186;2023-02-01T02:49:49;6.30;99.90
52543;DHT22;38449;52.696;6.186;2023-02-01T02:52:47;6.40;99.90
52543;DHT22;38449;52.696;6.186;2023-02-01T02:55:32;6.50;99.90
52543;DHT22;38449;52.696;6.186;2023-02-01T02:57:58;6.40;99.90
52543;DHT22;38449;52.696;6.186;2023-02-01T03:00:43;6.40;99.90
52543;DHT22;38449;52.696;6.186;2023-02-01T03:03:28;6.50;99.90
52543;DHT22;38449;52.696;6.186;2023-02-01T03:06:15;6.50;99.90
52543;DHT22;38449;52.696;6.186;2023-02-01T03:08:42;6.50;99.90
52543;DHT22;38449;52.696;6.186;2023-02-01T03:11:13;6.60;99.90
52543;DHT22;38449;52.696;6.186;2023-02-01T03:13:58;6.60;99.90
52543;DHT22;38449;52.696;6.186;2023-02-01T03:16:32;6.60;99.90
52543;DHT22;38449;52.696;6.186;2023-02-01T03:19:10;6.60;99.90
52543;DHT22;38449;52.696;6.186;2023-02-01T03:22:07;6.60;99.90
52543;DHT22;38449;52.696;6.186;2023-02-01T03:24:45;6.60;99.90
52543;DHT22;38449;52.696;6.186;2023-02-01T03:27:36;6.60;99.90
52543;DHT22;38449;52.696;6.186;2023-02-01T03:32:49;6.60;99.90
52543;DHT22;38449;52.696;6.186;2023-02-01T03:35:50;6.60;99.90
52543;DHT22;38449;52.696;6.186;2023-02-01T03:38:30;6.60;99.90
52543;DHT22;38449;52.696;6.186;2023-02-01T03:43:42;6.60;99.90
52543;DHT22;38449;52.696;6.186;2023-02-01T03:46:12;6.50;99.90
52543;DHT22;38449;52.696;6.186;2023-02-01T03:48:40;6.60;99.90
52543;DHT22;38449;52.696;6.186;2023-02-01T03:51:07;6.60;99.90
52543;DHT22;38449;52.696;6.186;2023-02-01T03:53:34;6.60;99.90
52543;DHT22;38449;52.696;6.186;2023-02-01T03:56:02;6.60;99.90
52543;DHT22;38449;52.696;6.186;2023-02-01T03:58:27;6.70;99.90
52543;DHT22;38449;52.696;6.186;2023-02-01T04:00:56;6.60;99.90
52543;DHT22;38449;52.696;6.186;2023-02-01T04:03:22;6.60;99.90
52543;DHT22;38449;52.696;6.186;2023-02-01T04:05:49;6.60;99.90
52543;DHT22;38449;52.696;6.186;2023-02-01T04:08:15;6.60;99.90
52543;DHT22;38449;52.696;6.186;2023-02-01T04:10:41;6.70;99.90
52543;DHT22;38449;52.696;6.186;2023-02-01T04:13:06;6.60;99.90
52543;DHT22;38449;52.696;6.186;2023-02-01T04:15:32;6.60;99.90
52543;DHT22;38449;52.696;6.186;2023-02-01T04:18:01;6.60;99.90
52543;DHT22;38449;52.696;6.186;2023-02-01T04:20:27;6.60;99.90
52543;DHT22;38449;52.696;6.186;2023-02-01T04:22:53;6.60;99.90
52543;DHT22;38449;52.696;6.186;2023-02-01T04:25:18;6.60;99.90
52543;DHT22;38449;52.696;6.186;2023-02-01T04:27:44;6.50;99.90
52543;DHT22;38449;52.696;6.186;2023-02-01T04:30:10;6.60;99.90
52543;DHT22;38449;52.696;6.186;2023-02-01T04:32:37;6.60;99.90
52543;DHT22;38449;52.696;6.186;2023-02-01T04:35:03;6.70;99.90
52543;DHT22;38449;52.696;6.186;2023-02-01T04:37:29;6.60;99.90
52543;DHT22;38449;52.696;6.186;2023-02-01T04:39:55;6.60;99.90
52543;DHT22;38449;52.696;6.186;2023-02-01T04:42:21;6.70;99.90
52543;DHT22;38449;52.696;6.186;2023-02-01T04:44:46;6.70;99.90
52543;DHT22;38449;52.696;6.186;2023-02-01T04:47:12;6.70;99.90
52543;DHT22;38449;52.696;6.186;2023-02-01T04:49:38;6.70;99.90
52543;DHT22;38449;52.696;6.186;2023-02-01T04:52:03;6.60;99.90
52543;DHT22;38449;52.696;6.186;2023-02-01T04:54:29;6.70;99.90
52543;DHT22;38449;52.696;6.186;2023-02-01T04:56:55;6.70;99.90
52543;DHT22;38449;52.696;6.186;2023-02-01T04:59:20;6.70;99.90
52543;DHT22;38449;52.696;6.186;2023-02-01T05:01:46;6.70;99.90
52543;DHT22;38449;52.696;6.186;2023-02-01T05:04:11;6.70;99.90
52543;DHT22;38449;52.696;6.186;2023-02-01T05:06:37;6.70;99.90
52543;DHT22;38449;52.696;6.186;2023-02-01T05:09:03;6.70;99.90
52543;DHT22;38449;52.696;6.186;2023-02-01T05:11:28;6.60;99.90
52543;DHT22;38449;52.696;6.186;2023-02-01T05:14:12;6.60;99.90
52543;DHT22;38449;52.696;6.186;2023-02-01T05:16:38;6.50;99.90
52543;DHT22;38449;52.696;6.186;2023-02-01T05:19:03;6.50;99.90
52543;DHT22;38449;52.696;6.186;2023-02-01T05:21:29;6.50;99.90
52543;DHT22;38449;52.696;6.186;2023-02-01T05:23:55;6.60;99.90
52543;DHT22;38449;52.696;6.186;2023-02-01T05:26:45;6.60;99.90
52543;DHT22;38449;52.696;6.186;2023-02-01T05:29:10;6.60;99.90
52543;DHT22;38449;52.696;6.186;2023-02-01T05:31:36;6.60;99.90
52543;DHT22;38449;52.696;6.186;2023-02-01T05:34:03;6.60;99.90
52543;DHT22;38449;52.696;6.186;2023-02-01T05:36:29;6.60;99.90
52543;DHT22;38449;52.696;6.186;2023-02-01T05:38:55;6.70;99.90
52543;DHT22;38449;52.696;6.186;2023-02-01T05:41:20;6.70;99.90
52543;DHT22;38449;52.696;6.186;2023-02-01T05:43:46;6.60;99.90
52543;DHT22;38449;52.696;6.186;2023-02-01T05:46:12;6.60;99.90
52543;DHT22;38449;52.696;6.186;2023-02-01T05:48:42;6.70;99.90
52543;DHT22;38449;52.696;6.186;2023-02-01T05:51:10;6.70;99.90
52543;DHT22;38449;52.696;6.186;2023-02-01T05:53:36;6.70;99.90
52543;DHT22;38449;52.696;6.186;2023-02-01T05:56:02;6.70;99.90
52543;DHT22;38449;52.696;6.186;2023-02-01T05:58:28;6.80;99.90
52543;DHT22;38449;52.696;6.186;2023-02-01T06:00:54;6.80;99.90
52543;DHT22;38449;52.696;6.186;2023-02-01T06:03:19;6.80;99.90
52543;DHT22;38449;52.696;6.186;2023-02-01T06:05:45;6.80;99.90
52543;DHT22;38449;52.696;6.186;2023-02-01T06:08:11;6.80;99.90
52543;DHT22;38449;52.696;6.186;2023-02-01T06:10:37;6.80;99.90
52543;DHT22;38449;52.696;6.186;2023-02-01T06:13:03;6.90;99.90
52543;DHT22;38449;52.696;6.186;2023-02-01T06:15:29;6.90;99.90
52543;DHT22;38449;52.696;6.186;2023-02-01T06:17:55;6.90;99.90
52543;DHT22;38449;52.696;6.186;2023-02-01T06:20:21;6.90;99.90
52543;DHT22;38449;52.696;6.186;2023-02-01T06:22:47;6.90;99.90
52543;DHT22;38449;52.696;6.186;2023-02-01T06:25:12;6.90;99.90
52543;DHT22;38449;52.696;6.186;2023-02-01T06:27:38;6.90;99.90
52543;DHT22;38449;52.696;6.186;2023-02-01T06:30:05;6.90;99.90
52543;DHT22;38449;52.696;6.186;2023-02-01T06:32:31;6.90;99.90
52543;DHT22;38449;52.696;6.186;2023-02-01T06:34:57;6.80;99.90
52543;DHT22;38449;52.696;6.186;2023-02-01T06:37:24;6.80;99.90
52543;DHT22;38449;52.696;6.186;2023-02-01T06:39:50;6.90;99.90
52543;DHT22;38449;52.696;6.186;2023-02-01T06:42:16;6.80;99.90
52543;DHT22;38449;52.696;6.186;2023-02-01T06:44:42;6.80;99.90
52543;DHT22;38449;52.696;6.186;2023-02-01T06:47:07;6.80;99.90
52543;DHT22;38449;52.696;6.186;2023-02-01T06:49:33;6.80;99.90
52543;DHT22;38449;52.696;6.186;2023-02-01T06:51:59;6.90;99.90
52543;DHT22;38449;52.696;6.186;2023-02-01T06:54:27;6.80;99.90
52543;DHT22;38449;52.696;6.186;2023-02-01T06:56:53;6.80;99.90
52543;DHT22;38449;52.696;6.186;2023-02-01T06:59:19;6.80;99.90
52543;DHT22;38449;52.696;6.186;2023-02-01T07:01:44;6.80;99.90
52543;DHT22;38449;52.696;6.186;2023-02-01T07:04:11;6.70;99.90
52543;DHT22;38449;52.696;6.186;2023-02-01T07:06:38;6.80;99.90
52543;DHT22;38449;52.696;6.186;2023-02-01T07:09:04;6.80;99.90
52543;DHT22;38449;52.696;6.186;2023-02-01T07:11:29;6.80;99.90
52543;DHT22;38449;52.696;6.186;2023-02-01T07:13:56;6.80;99.90
52543;DHT22;38449;52.696;6.186;2023-02-01T07:16:21;6.80;99.90
52543;DHT22;38449;52.696;6.186;2023-02-01T07:18:47;6.80;99.90
52543;DHT22;38449;52.696;6.186;2023-02-01T07:21:17;6.80;99.90
52543;DHT22;38449;52.696;6.186;2023-02-01T07:23:43;6.80;99.90
52543;DHT22;38449;52.696;6.186;2023-02-01T07:26:11;6.80;99.90
52543;DHT22;38449;52.696;6.186;2023-02-01T07:28:38;6.80;99.90
52543;DHT22;38449;52.696;6.186;2023-02-01T07:31:12;6.70;99.90
52543;DHT22;38449;52.696;6.186;2023-02-01T07:33:44;6.70;99.90
52543;DHT22;38449;52.696;6.186;2023-02-01T07:36:12;6.70;99.90
52543;DHT22;38449;52.696;6.186;2023-02-01T07:38:38;6.70;99.90
52543;DHT22;38449;52.696;6.186;2023-02-01T07:41:05;6.60;99.90
52543;DHT22;38449;52.696;6.186;2023-02-01T07:43:32;6.60;99.90
52543;DHT22;38449;52.696;6.186;2023-02-01T07:45:58;6.60;99.90
52543;DHT22;38449;52.696;6.186;2023-02-01T07:48:26;6.70;99.90
52543;DHT22;38449;52.696;6.186;2023-02-01T07:51:00;6.60;99.90
52543;DHT22;38449;52.696;6.186;2023-02-01T07:53:26;6.50;99.90
52543;DHT22;38449;52.696;6.186;2023-02-01T07:55:52;6.50;99.90
52543;DHT22;38449;52.696;6.186;2023-02-01T07:58:17;6.50;99.90
52543;DHT22;38449;52.696;6.186;2023-02-01T08:00:43;6.50;99.90
52543;DHT22;38449;52.696;6.186;2023-02-01T08:03:27;6.50;99.90
52543;DHT22;38449;52.696;6.186;2023-02-01T08:05:55;6.60;99.90
52543;DHT22;38449;52.696;6.186;2023-02-01T08:08:21;6.50;99.90
52543;DHT22;38449;52.696;6.186;2023-02-01T08:10:47;6.60;99.90
52543;DHT22;38449;52.696;6.186;2023-02-01T08:13:13;6.60;99.90
52543;DHT22;38449;52.696;6.186;2023-02-01T08:15:38;6.60;99.90
52543;DHT22;38449;52.696;6.186;2023-02-01T08:18:04;6.60;99.90
52543;DHT22;38449;52.696;6.186;2023-02-01T08:20:30;6.50;99.90
52543;DHT22;38449;52.696;6.186;2023-02-01T08:22:56;6.60;99.90
52543;DHT22;38449;52.696;6.186;2023-02-01T08:25:22;6.60;99.90
52543;DHT22;38449;52.696;6.186;2023-02-01T08:27:49;6.70;99.90
52543;DHT22;38449;52.696;6.186;2023-02-01T08:30:15;6.70;99.90
52543;DHT22;38449;52.696;6.186;2023-02-01T08:32:41;6.70;99.90
52543;DHT22;38449;52.696;6.186;2023-02-01T08:35:07;6.70;99.90
52543;DHT22;38449;52.696;6.186;2023-02-01T08:37:33;6.80;99.90
52543;DHT22;38449;52.696;6.186;2023-02-01T08:39:59;6.70;99.90
52543;DHT22;38449;52.696;6.186;2023-02-01T08:42:24;6.80;99.90
52543;DHT22;38449;52.696;6.186;2023-02-01T08:45:09;6.90;99.90
52543;DHT22;38449;52.696;6.186;2023-02-01T08:47:35;6.80;99.90
52543;DHT22;38449;52.696;6.186;2023-02-01T08:50:00;6.80;99.90
52543;DHT22;38449;52.696;6.186;2023-02-01T08:52:26;6.80;99.90
52543;DHT22;38449;52.696;6.186;2023-02-01T08:54:52;6.80;99.90
52543;DHT22;38449;52.696;6.186;2023-02-01T08:57:17;6.90;99.90
52543;DHT22;38449;52.696;6.186;2023-02-01T08:59:44;6.90;99.90
52543;DHT22;38449;52.696;6.186;2023-02-01T09:02:17;7.00;99.90
52543;DHT22;38449;52.696;6.186;2023-02-01T09:04:43;6.90;99.90
52543;DHT22;38449;52.696;6.186;2023-02-01T09:07:09;6.90;99.90
52543;DHT22;38449;52.696;6.186;2023-02-01T09:09:36;6.90;99.90
52543;DHT22;38449;52.696;6.186;2023-02-01T09:12:02;6.90;99.90
52543;DHT22;38449;52.696;6.186;2023-02-01T09:14:28;7.00;99.90
52543;DHT22;38449;52.696;6.186;2023-02-01T09:16:55;7.00;99.90
52543;DHT22;38449;52.696;6.186;2023-02-01T09:19:21;6.90;99.90
52543;DHT22;38449;52.696;6.186;2023-02-01T09:21:46;6.90;99.90
52543;DHT22;38449;52.696;6.186;2023-02-01T09:24:13;7.00;99.90
52543;DHT22;38449;52.696;6.186;2023-02-01T09:26:39;7.00;99.90
52543;DHT22;38449;52.696;6.186;2023-02-01T09:29:06;7.00;99.90
52543;DHT22;38449;52.696;6.186;2023-02-01T09:31:37;7.00;99.90
52543;DHT22;38449;52.696;6.186;2023-02-01T09:34:04;7.00;99.90
52543;DHT22;38449;52.696;6.186;2023-02-01T09:36:29;7.00;99.90
52543;DHT22;38449;52.696;6.186;2023-02-01T09:38:55;7.00;99.90
52543;DHT22;38449;52.696;6.186;2023-02-01T09:47:14;7.00;99.90
52543;DHT22;38449;52.696;6.186;2023-02-01T09:49:55;7.00;99.90
52543;DHT22;38449;52.696;6.186;2023-02-01T09:52:27;7.10;99.90
52543;DHT22;38449;52.696;6.186;2023-02-01T09:54:59;7.00;99.90
52543;DHT22;38449;52.696;6.186;2023-02-01T09:57:49;7.10;99.90
52543;DHT22;38449;52.696;6.186;2023-02-01T10:00:20;7.00;99.90
52543;DHT22;38449;52.696;6.186;2023-02-01T10:02:49;7.00;99.90
52543;DHT22;38449;52.696;6.186;2023-02-01T10:05:24;7.10;99.90
52543;DHT22;38449;52.696;6.186;2023-02-01T10:10:49;7.00;99.90
52543;DHT22;38449;52.696;6.186;2023-02-01T10:13:33;7.00;99.90
52543;DHT22;38449;52.696;6.186;2023-02-01T10:16:17;7.00;99.90
52543;DHT22;38449;52.696;6.186;2023-02-01T10:26:45;7.00;99.90
52543;DHT22;38449;52.696;6.186;2023-02-01T10:29:19;7.00;99.90
52543;DHT22;38449;52.696;6.186;2023-02-01T10:31:45;7.10;99.90
52543;DHT22;38449;52.696;6.186;2023-02-01T10:34:24;7.10;99.90
52543;DHT22;38449;52.696;6.186;2023-02-01T10:39:20;7.10;99.90
52543;DHT22;38449;52.696;6.186;2023-02-01T10:41:46;7.10;99.90
52543;DHT22;38449;52.696;6.186;2023-02-01T10:44:18;7.00;99.90
52543;DHT22;38449;52.696;6.186;2023-02-01T10:46:45;7.00;99.90
52543;DHT22;38449;52.696;6.186;2023-02-01T10:49:37;6.90;99.90
52543;DHT22;38449;52.696;6.186;2023-02-01T10:52:17;6.80;99.90
52543;DHT22;38449;52.696;6.186;2023-02-01T10:54:44;6.80;99.90
52543;DHT22;38449;52.696;6.186;2023-02-01T10:57:19;6.80;99.90
52543;DHT22;38449;52.696;6.186;2023-02-01T10:59:45;6.80;99.90
52543;DHT22;38449;52.696;6.186;2023-02-01T11:02:32;6.90;99.90
52543;DHT22;38449;52.696;6.186;2023-02-01T11:05:00;7.00;99.90
52543;DHT22;38449;52.696;6.186;2023-02-01T11:07:28;6.90;99.90
52543;DHT22;38449;52.696;6.186;2023-02-01T11:09:55;7.00;99.90
52543;DHT22;38449;52.696;6.186;2023-02-01T11:12:33;7.00;99.90
52543;DHT22;38449;52.696;6.186;2023-02-01T11:15:12;7.00;99.90
52543;DHT22;38449;52.696;6.186;2023-02-01T11:17:47;7.10;99.90
52543;DHT22;38449;52.696;6.186;2023-02-01T11:20:17;7.20;99.90
52543;DHT22;38449;52.696;6.186;2023-02-01T11:22:56;7.20;99.90
52543;DHT22;38449;52.696;6.186;2023-02-01T11:25:23;7.20;99.90
52543;DHT22;38449;52.696;6.186;2023-02-01T11:27:50;7.30;99.90
52543;DHT22;38449;52.696;6.186;2023-02-01T11:30:28;7.20;99.90
52543;DHT22;38449;52.696;6.186;2023-02-01T11:32:57;7.20;99.90
52543;DHT22;38449;52.696;6.186;2023-02-01T11:35:23;7.30;99.90
52543;DHT22;38449;52.696;6.186;2023-02-01T11:37:57;7.40;99.90
52543;DHT22;38449;52.696;6.186;2023-02-01T11:40:36;7.40;99.90
52543;DHT22;38449;52.696;6.186;2023-02-01T11:43:15;7.30;99.90
52543;DHT22;38449;52.696;6.186;2023-02-01T11:46:00;7.10;99.90
52543;DHT22;38449;52.696;6.186;2023-02-01T11:48:30;7.00;99.90
52543;DHT22;38449;52.696;6.186;2023-02-01T11:51:44;7.10;99.90
52543;DHT22;38449;52.696;6.186;2023-02-01T11:54:41;7.00;99.90
52543;DHT22;38449;52.696;6.186;2023-02-01T12:02:51;7.00;99.90
52543;DHT22;38449;52.696;6.186;2023-02-01T12:05:37;7.10;99.90
52543;DHT22;38449;52.696;6.186;2023-02-01T12:08:19;7.10;99.90
52543;DHT22;38449;52.696;6.186;2023-02-01T12:11:10;7.10;99.90
52543;DHT22;38449;52.696;6.186;2023-02-01T12:17:26;7.10;99.90
52543;DHT22;38449;52.696;6.186;2023-02-01T12:25:41;6.80;99.90
52543;DHT22;38449;52.696;6.186;2023-02-01T12:28:34;6.90;99.90
52543;DHT22;38449;52.696;6.186;2023-02-01T12:43:09;7.00;99.90
52543;DHT22;38449;52.696;6.186;2023-02-01T12:45:42;7.10;99.90
52543;DHT22;38449;52.696;6.186;2023-02-01T12:51:06;7.10;99.90
52543;DHT22;38449;52.696;6.186;2023-02-01T12:53:38;7.20;99.90
52543;DHT22;38449;52.696;6.186;2023-02-01T12:56:12;7.20;99.90
52543;DHT22;38449;52.696;6.186;2023-02-01T12:58:44;7.20;99.90
52543;DHT22;38449;52.696;6.186;2023-02-01T13:01:17;7.30;99.90
52543;DHT22;38449;52.696;6.186;2023-02-01T13:04:02;7.30;99.90
52543;DHT22;38449;52.696;6.186;2023-02-01T13:06:38;7.30;99.90
52543;DHT22;38449;52.696;6.186;2023-02-01T13:09:20;7.40;99.90
52543;DHT22;38449;52.696;6.186;2023-02-01T13:11:50;7.40;99.90
52543;DHT22;38449;52.696;6.186;2023-02-01T13:17:12;7.60;99.90
52543;DHT22;38449;52.696;6.186;2023-02-01T13:22:46;7.60;99.90
52543;DHT22;38449;52.696;6.186;2023-02-01T13:28:18;7.70;99.90
52543;DHT22;38449;52.696;6.186;2023-02-01T13:33:51;7.70;99.90
52543;DHT22;38449;52.696;6.186;2023-02-01T13:42:02;7.80;99.90
52543;DHT22;38449;52.696;6.186;2023-02-01T13:47:03;7.80;99.90
52543;DHT22;38449;52.696;6.186;2023-02-01T13:49:32;7.80;99.90
52543;DHT22;38449;52.696;6.186;2023-02-01T13:52:02;7.90;99.90
52543;DHT22;38449;52.696;6.186;2023-02-01T13:54:38;8.00;99.90
52543;DHT22;38449;52.696;6.186;2023-02-01T13:57:06;8.00;99.90
52543;DHT22;38449;52.696;6.186;2023-02-01T14:08:12;8.10;99.90
52543;DHT22;38449;52.696;6.186;2023-02-01T14:13:32;8.00;99.90
52543;DHT22;38449;52.696;6.186;2023-02-01T14:21:31;8.00;99.90
52543;DHT22;38449;52.696;6.186;2023-02-01T14:31:51;8.10;99.90
52543;DHT22;38449;52.696;6.186;2023-02-01T14:36:58;8.20;99.90
52543;DHT22;38449;52.696;6.186;2023-02-01T14:39:46;8.10;99.90
52543;DHT22;38449;52.696;6.186;2023-02-01T14:42:24;8.10;99.90
52543;DHT22;38449;52.696;6.186;2023-02-01T14:44:52;8.10;99.90
52543;DHT22;38449;52.696;6.186;2023-02-01T14:58:06;8.10;99.90
52543;DHT22;38449;52.696;6.186;2023-02-01T15:00:35;8.20;99.90
52543;DHT22;38449;52.696;6.186;2023-02-01T15:05:59;8.10;99.90
52543;DHT22;38449;52.696;6.186;2023-02-01T15:08:33;8.10;99.90
52543;DHT22;38449;52.696;6.186;2023-02-01T15:11:01;7.90;99.90
52543;DHT22;38449;52.696;6.186;2023-02-01T15:13:28;8.10;99.90
52543;DHT22;38449;52.696;6.186;2023-02-01T15:16:01;8.10;99.90
52543;DHT22;38449;52.696;6.186;2023-02-01T15:18:29;8.00;99.90
52543;DHT22;38449;52.696;6.186;2023-02-01T15:20:59;8.00;99.90
52543;DHT22;38449;52.696;6.186;2023-02-01T15:23:25;8.00;99.90
52543;DHT22;38449;52.696;6.186;2023-02-01T15:25:52;7.90;99.90
52543;DHT22;38449;52.696;6.186;2023-02-01T15:28:17;7.90;99.90
52543;DHT22;38449;52.696;6.186;2023-02-01T15:31:01;7.90;99.90
52543;DHT22;38449;52.696;6.186;2023-02-01T15:33:28;7.80;99.90
52543;DHT22;38449;52.696;6.186;2023-02-01T15:38:33;7.90;99.90
52543;DHT22;38449;52.696;6.186;2023-02-01T15:43:40;7.80;99.90
52543;DHT22;38449;52.696;6.186;2023-02-01T15:46:22;7.80;99.90
52543;DHT22;38449;52.696;6.186;2023-02-01T15:48:50;7.80;99.90
52543;DHT22;38449;52.696;6.186;2023-02-01T15:51:19;7.70;99.90
52543;DHT22;38449;52.696;6.186;2023-02-01T15:54:01;7.70;99.90
52543;DHT22;38449;52.696;6.186;2023-02-01T15:56:33;7.60;99.90
52543;DHT22;38449;52.696;6.186;2023-02-01T15:59:01;7.70;99.90
52543;DHT22;38449;52.696;6.186;2023-02-01T16:01:28;7.60;99.90
52543;DHT22;38449;52.696;6.186;2023-02-01T16:04:24;7.60;99.90
52543;DHT22;38449;52.696;6.186;2023-02-01T16:07:02;7.50;99.90
52543;DHT22;38449;52.696;6.186;2023-02-01T16:10:00;7.50;99.90
52543;DHT22;38449;52.696;6.186;2023-02-01T16:15:09;7.30;99.90
52543;DHT22;38449;52.696;6.186;2023-02-01T16:17:35;7.30;99.90
52543;DHT22;38449;52.696;6.186;2023-02-01T16:20:01;7.30;99.90
52543;DHT22;38449;52.696;6.186;2023-02-01T16:22:28;7.30;99.90
52543;DHT22;38449;52.696;6.186;2023-02-01T16:24:54;7.30;99.90
52543;DHT22;38449;52.696;6.186;2023-02-01T16:27:20;7.30;99.90
52543;DHT22;38449;52.696;6.186;2023-02-01T16:29:48;7.30;99.90
52543;DHT22;38449;52.696;6.186;2023-02-01T16:32:17;7.20;99.90
52543;DHT22;38449;52.696;6.186;2023-02-01T16:34:44;7.20;99.90
52543;DHT22;38449;52.696;6.186;2023-02-01T16:37:19;7.20;99.90
52543;DHT22;38449;52.696;6.186;2023-02-01T16:39:45;7.10;99.90
52543;DHT22;38449;52.696;6.186;2023-02-01T16:42:12;7.10;99.90
52543;DHT22;38449;52.696;6.186;2023-02-01T16:44:38;7.10;99.90
52543;DHT22;38449;52.696;6.186;2023-02-01T16:47:12;7.10;99.90
52543;DHT22;38449;52.696;6.186;2023-02-01T16:49:41;7.10;99.90
52543;DHT22;38449;52.696;6.186;2023-02-01T16:52:24;7.00;99.90
52543;DHT22;38449;52.696;6.186;2023-02-01T16:54:50;7.00;99.90
52543;DHT22;38449;52.696;6.186;2023-02-01T16:57:18;7.00;99.90
52543;DHT22;38449;52.696;6.186;2023-02-01T16:59:44;7.00;99.90
52543;DHT22;38449;52.696;6.186;2023-02-01T17:02:16;7.00;99.90
52543;DHT22;38449;52.696;6.186;2023-02-01T17:04:42;7.20;99.90
52543;DHT22;38449;52.696;6.186;2023-02-01T17:07:16;7.40;99.90
52543;DHT22;38449;52.696;6.186;2023-02-01T17:09:42;7.50;99.90
52543;DHT22;38449;52.696;6.186;2023-02-01T17:12:29;7.50;99.90
52543;DHT22;38449;52.696;6.186;2023-02-01T17:14:56;7.50;99.90
52543;DHT22;38449;52.696;6.186;2023-02-01T17:17:23;7.60;99.90
52543;DHT22;38449;52.696;6.186;2023-02-01T17:19:51;7.60;99.90
52543;DHT22;38449;52.696;6.186;2023-02-01T17:22:19;7.60;99.90
52543;DHT22;38449;52.696;6.186;2023-02-01T17:24:45;7.60;99.90
52543;DHT22;38449;52.696;6.186;2023-02-01T17:27:10;7.60;99.90
52543;DHT22;38449;52.696;6.186;2023-02-01T17:29:36;7.60;99.90
52543;DHT22;38449;52.696;6.186;2023-02-01T17:32:02;7.50;99.90
52543;DHT22;38449;52.696;6.186;2023-02-01T17:34:28;7.60;99.90
52543;DHT22;38449;52.696;6.186;2023-02-01T17:36:54;7.50;99.90
52543;DHT22;38449;52.696;6.186;2023-02-01T17:39:20;7.50;99.90
52543;DHT22;38449;52.696;6.186;2023-02-01T17:42:08;7.30;99.90
52543;DHT22;38449;52.696;6.186;2023-02-01T17:44:34;7.10;99.90
52543;DHT22;38449;52.696;6.186;2023-02-01T17:47:00;7.00;99.90
52543;DHT22;38449;52.696;6.186;2023-02-01T17:49:26;6.90;99.90
52543;DHT22;38449;52.696;6.186;2023-02-01T17:51:54;6.80;99.90
52543;DHT22;38449;52.696;6.186;2023-02-01T17:54:19;6.70;99.90
52543;DHT22;38449;52.696;6.186;2023-02-01T17:56:45;6.80;99.90
52543;DHT22;38449;52.696;6.186;2023-02-01T17:59:13;6.60;99.90
52543;DHT22;38449;52.696;6.186;2023-02-01T18:01:40;6.60;99.90
52543;DHT22;38449;52.696;6.186;2023-02-01T18:04:07;6.50;99.90
52543;DHT22;38449;52.696;6.186;2023-02-01T18:06:35;6.50;99.90
52543;DHT22;38449;52.696;6.186;2023-02-01T18:09:01;6.40;99.90
52543;DHT22;38449;52.696;6.186;2023-02-01T18:11:27;6.50;99.90
52543;DHT22;38449;52.696;6.186;2023-02-01T18:13:57;6.50;99.90
52543;DHT22;38449;52.696;6.186;2023-02-01T18:16:33;6.50;99.90
52543;DHT22;38449;52.696;6.186;2023-02-01T18:18:59;6.50;99.90
52543;DHT22;38449;52.696;6.186;2023-02-01T18:21:35;6.40;99.90
52543;DHT22;38449;52.696;6.186;2023-02-01T18:24:02;6.40;99.90